sensor_id;sensor_type;location;lat;lon;timestamp;pressure;altitude;pressure_sealevel;temperature;humidity
28626;BME280;18905;42.668;23.364;2023-04-20T04:05:02;94709.09;;;11.03;100.00
28626;BME280;18905;42.668;23.364;2023-04-20T04:07:27;94608.63;;;10.69;100.00
28626;BME280;18905;42.668;23.364;2023-04-20T04:09:53;94626.84;;;10.72;100.00
28626;BME280;18905;42.668;23.364;2023-04-20T04:12:18;94600.47;;;10.77;100.00
28626;BME280;18905;42.668;23.364;2023-04-20T04:14:44;94626.13;;;11.04;100.00
28626;BME280;18905;42.668;23.364;2023-04-20T04:17:12;94712.94;;;11.76;100.00
28626;BME280;18905;42.668;23.364;2023-04-20T04:27:27;94576.03;;;10.53;100.00
28626;BME280;18905;42.668;23.364;2023-04-20T04:45:30;94626.97;;;9.97;100.00
28626;BME280;18905;42.668;23.364;2023-04-20T05:47:52;94594.41;;;9.73;100.00
28626;BME280;18905;42.668;23.364;2023-04-20T05:50:18;94745.22;;;10.70;100.00
28626;BME280;18905;42.668;23.364;2023-04-20T05:57:55;94681.44;;;10.28;100.00
28626;BME280;18905;42.668;23.364;2023-04-20T06:00:21;94664.66;;;10.22;100.00
28626;BME280;18905;42.668;23.364;2023-04-20T06:02:48;94667.25;;;10.02;100.00
28626;BME280;18905;42.668;23.364;2023-04-20T06:05:13;94654.75;;;9.89;100.00
28626;BME280;18905;42.668;23.364;2023-04-20T06:07:43;94628.38;;;10.03;100.00
28626;BME280;18905;42.668;23.364;2023-04-20T06:10:09;94700.28;;;10.07;100.00
28626;BME280;18905;42.668;23.364;2023-04-20T06:12:35;94607.28;;;9.67;100.00
28626;BME280;18905;42.668;23.364;2023-04-20T06:15:01;94664.72;;;10.05;100.00
28626;BME280;18905;42.668;23.364;2023-04-20T06:17:29;94755.53;;;10.39;100.00
28626;BME280;18905;42.668;23.364;2023-04-20T06:19:55;94657.38;;;9.77;100.00
28626;BME280;18905;42.668;23.364;2023-04-20T06:56:03;94779.13;;;10.88;100.00
28626;BME280;18905;42.668;23.364;2023-04-20T06:58:30;94764.81;;;10.58;100.00
28626;BME280;18905;42.668;23.364;2023-04-20T07:00:58;94715.47;;;10.20;100.00
28626;BME280;18905;42.668;23.364;2023-04-20T07:03:24;94687.03;;;10.23;100.00
28626;BME280;18905;42.668;23.364;2023-04-20T07:24:37;94788.47;;;10.90;100.00
28626;BME280;18905;42.668;23.364;2023-04-20T07:27:03;94695.09;;;10.81;100.00
28626;BME280;18905;42.668;23.364;2023-04-20T07:29:30;94686.97;;;10.60;100.00
28626;BME280;18905;42.668;23.364;2023-04-20T07:31:56;94694.47;;;10.84;100.00
28626;BME280;18905;42.668;23.364;2023-04-20T07:34:21;94684.47;;;10.55;100.00
28626;BME280;18905;42.668;23.364;2023-04-20T07:36:48;94781.06;;;11.49;100.00
28626;BME280;18905;42.668;23.364;2023-04-20T07:39:13;94620.72;;;10.13;100.00
28626;BME280;18905;42.668;23.364;2023-04-20T07:41:40;94785.75;;;11.19;100.00
28626;BME280;18905;42.668;23.364;2023-04-20T07:44:06;94696.22;;;10.80;100.00
28626;BME280;18905;42.668;23.364;2023-04-20T07:46:31;94774.28;;;11.22;100.00
28626;BME280;18905;42.668;23.364;2023-04-20T07:49:00;94699.66;;;10.89;100.00
28626;BME280;18905;42.668;23.364;2023-04-20T07:51:28;94749.56;;;11.32;100.00
28626;BME280;18905;42.668;23.364;2023-04-20T07:53:56;94619.56;;;10.72;100.00
28626;BME280;18905;42.668;23.364;2023-04-20T07:58:58;94772.09;;;12.67;100.00
28626;BME280;18905;42.668;23.364;2023-04-20T08:01:25;94682.59;;;12.63;100.00
28626;BME280;18905;42.668;23.364;2023-04-20T08:03:52;94661.50;;;12.09;100.00
28626;BME280;18905;42.668;23.364;2023-04-20T08:06:20;94780.34;;;12.94;100.00
28626;BME280;18905;42.668;23.364;2023-04-20T08:08:46;94781.38;;;13.26;100.00
28626;BME280;18905;42.668;23.364;2023-04-20T08:11:12;94645.28;;;12.33;100.00
28626;BME280;18905;42.668;23.364;2023-04-20T08:18:48;94769.75;;;13.25;100.00
28626;BME280;18905;42.668;23.364;2023-04-20T08:21:14;94763.50;;;13.76;100.00
28626;BME280;18905;42.668;23.364;2023-04-20T08:36:36;94606.13;;;12.18;100.00
28626;BME280;18905;42.668;23.364;2023-04-20T08:39:10;94651.69;;;12.52;100.00
28626;BME280;18905;42.668;23.364;2023-04-20T08:41:39;94623.16;;;12.43;100.00
28626;BME280;18905;42.668;23.364;2023-04-20T08:44:06;94780.31;;;13.42;100.00
28626;BME280;18905;42.668;23.364;2023-04-20T08:49:10;94776.06;;;13.17;100.00
28626;BME280;18905;42.668;23.364;2023-04-20T08:51:41;94622.16;;;12.47;100.00
28626;BME280;18905;42.668;23.364;2023-04-20T08:54:08;94679.66;;;12.92;100.00
28626;BME280;18905;42.668;23.364;2023-04-20T09:09:30;94780.94;;;13.63;100.00
28626;BME280;18905;42.668;23.364;2023-04-20T09:19:50;94778.22;;;13.12;100.00
28626;BME280;18905;42.668;23.364;2023-04-20T09:22:16;94775.00;;;13.46;100.00
28626;BME280;18905;42.668;23.364;2023-04-20T09:35:03;94765.97;;;14.09;100.00
28626;BME280;18905;42.668;23.364;2023-04-20T09:37:31;94627.38;;;12.92;100.00
28626;BME280;18905;42.668;23.364;2023-04-20T09:40:02;94761.22;;;14.33;100.00
28626;BME280;18905;42.668;23.364;2023-04-20T09:42:31;94631.94;;;13.70;100.00
28626;BME280;18905;42.668;23.364;2023-04-20T09:45:01;94763.09;;;14.76;99.52
28626;BME280;18905;42.668;23.364;2023-04-20T09:47:27;94636.38;;;14.52;95.26
28626;BME280;18905;42.668;23.364;2023-04-20T09:49:55;94695.53;;;14.43;95.81
28626;BME280;18905;42.668;23.364;2023-04-20T09:52:23;94769.22;;;14.57;97.75
28626;BME280;18905;42.668;23.364;2023-04-20T09:54:50;94689.44;;;14.65;97.19
28626;BME280;18905;42.668;23.364;2023-04-20T09:57:19;94647.25;;;14.52;90.61
28626;BME280;18905;42.668;23.364;2023-04-20T09:59:49;94683.66;;;14.67;93.14
28626;BME280;18905;42.668;23.364;2023-04-20T10:02:16;94660.72;;;14.99;90.46
28626;BME280;18905;42.668;23.364;2023-04-20T10:07:27;94746.47;;;15.81;89.59
28626;BME280;18905;42.668;23.364;2023-04-20T10:10:14;94697.66;;;15.34;89.49
28626;BME280;18905;42.668;23.364;2023-04-20T10:12:51;94674.56;;;15.44;89.11
28626;BME280;18905;42.668;23.364;2023-04-20T10:15:17;94610.75;;;15.22;84.71
28626;BME280;18905;42.668;23.364;2023-04-20T10:17:49;94591.25;;;14.01;93.84
28626;BME280;18905;42.668;23.364;2023-04-20T10:20:24;94625.00;;;14.31;92.02
28626;BME280;18905;42.668;23.364;2023-04-20T10:22:51;94737.47;;;14.77;96.29
28626;BME280;18905;42.668;23.364;2023-04-20T10:25:23;94726.72;;;15.30;92.64
28626;BME280;18905;42.668;23.364;2023-04-20T10:27:57;94731.63;;;15.40;90.25
28626;BME280;18905;42.668;23.364;2023-04-20T10:30:27;94590.97;;;14.87;88.77
28626;BME280;18905;42.668;23.364;2023-04-20T10:33:03;94655.97;;;14.61;88.29
28626;BME280;18905;42.668;23.364;2023-04-20T10:38:34;94720.41;;;15.61;92.13
28626;BME280;18905;42.668;23.364;2023-04-20T10:41:10;94644.88;;;15.20;86.09
28626;BME280;18905;42.668;23.364;2023-04-20T10:43:39;94726.75;;;16.06;85.02
28626;BME280;18905;42.668;23.364;2023-04-20T10:46:17;94725.19;;;15.67;86.57
28626;BME280;18905;42.668;23.364;2023-04-20T10:48:56;94592.63;;;15.49;82.80
28626;BME280;18905;42.668;23.364;2023-04-20T10:51:22;94733.84;;;16.52;80.20
28626;BME280;18905;42.668;23.364;2023-04-20T10:54:05;94720.75;;;16.39;83.22
28626;BME280;18905;42.668;23.364;2023-04-20T10:56:46;94727.13;;;16.69;79.55
28626;BME280;18905;42.668;23.364;2023-04-20T10:59:17;94601.16;;;16.11;77.90
28626;BME280;18905;42.668;23.364;2023-04-20T11:01:44;94646.06;;;15.98;78.05
28626;BME280;18905;42.668;23.364;2023-04-20T11:04:11;94641.81;;;16.42;78.62
28626;BME280;18905;42.668;23.364;2023-04-20T11:06:39;94677.06;;;16.80;77.69
28626;BME280;18905;42.668;23.364;2023-04-20T11:09:27;94717.56;;;17.30;78.21
28626;BME280;18905;42.668;23.364;2023-04-20T11:12:09;94723.44;;;16.58;76.95
28626;BME280;18905;42.668;23.364;2023-04-20T11:14:49;94650.25;;;16.82;73.68
28626;BME280;18905;42.668;23.364;2023-04-20T11:17:15;94609.53;;;16.96;71.41
28626;BME280;18905;42.668;23.364;2023-04-20T11:19:41;94591.00;;;17.09;68.47
28626;BME280;18905;42.668;23.364;2023-04-20T11:22:07;94700.91;;;17.09;71.37
28626;BME280;18905;42.668;23.364;2023-04-20T11:24:34;94640.56;;;15.95;75.13
28626;BME280;18905;42.668;23.364;2023-04-20T11:27:00;94699.47;;;16.44;78.44
28626;BME280;18905;42.668;23.364;2023-04-20T11:32:01;94629.34;;;15.77;78.98
28626;BME280;18905;42.668;23.364;2023-04-20T11:34:28;94706.44;;;16.23;76.73
28626;BME280;18905;42.668;23.364;2023-04-20T11:36:54;94609.50;;;15.35;74.58
28626;BME280;18905;42.668;23.364;2023-04-20T11:39:25;94614.00;;;15.47;78.06
28626;BME280;18905;42.668;23.364;2023-04-20T11:41:52;94618.63;;;16.07;73.37
28626;BME280;18905;42.668;23.364;2023-04-20T11:44:22;94697.78;;;16.17;76.51
28626;BME280;18905;42.668;23.364;2023-04-20T11:46:48;94642.69;;;15.63;79.24
28626;BME280;18905;42.668;23.364;2023-04-20T11:49:17;94569.81;;;15.34;76.99
28626;BME280;18905;42.668;23.364;2023-04-20T11:51:46;94551.41;;;14.90;78.92
28626;BME280;18905;42.668;23.364;2023-04-20T11:54:13;94597.81;;;14.81;79.35
28626;BME280;18905;42.668;23.364;2023-04-20T11:56:41;94695.81;;;15.95;78.13
28626;BME280;18905;42.668;23.364;2023-04-20T11:59:07;94578.53;;;15.05;78.54
28626;BME280;18905;42.668;23.364;2023-04-20T12:01:37;94609.97;;;15.41;73.96
28626;BME280;18905;42.668;23.364;2023-04-20T12:04:03;94537.47;;;14.91;75.50
28626;BME280;18905;42.668;23.364;2023-04-20T12:06:29;94585.66;;;14.75;79.34
28626;BME280;18905;42.668;23.364;2023-04-20T12:08:59;94562.34;;;14.93;78.60
28626;BME280;18905;42.668;23.364;2023-04-20T12:11:28;94679.78;;;15.90;78.59
28626;BME280;18905;42.668;23.364;2023-04-20T12:13:54;94688.19;;;16.04;76.97
28626;BME280;18905;42.668;23.364;2023-04-20T12:16:21;94597.00;;;15.34;79.61
28626;BME280;18905;42.668;23.364;2023-04-20T12:18:47;94686.69;;;15.31;82.02
28626;BME280;18905;42.668;23.364;2023-04-20T12:21:15;94693.28;;;15.30;83.50
28626;BME280;18905;42.668;23.364;2023-04-20T12:23:41;94678.13;;;14.94;84.71
28626;BME280;18905;42.668;23.364;2023-04-20T12:26:08;94645.31;;;14.37;85.90
28626;BME280;18905;42.668;23.364;2023-04-20T12:28:35;94692.72;;;14.55;87.38
28626;BME280;18905;42.668;23.364;2023-04-20T12:31:01;94573.50;;;13.73;89.92
28626;BME280;18905;42.668;23.364;2023-04-20T12:33:30;94533.34;;;13.20;93.86
28626;BME280;18905;42.668;23.364;2023-04-20T12:38:30;94681.44;;;14.10;93.82
28626;BME280;18905;42.668;23.364;2023-04-20T12:41:02;94665.34;;;14.02;92.67
28626;BME280;18905;42.668;23.364;2023-04-20T12:43:31;94614.88;;;13.85;93.04
28626;BME280;18905;42.668;23.364;2023-04-20T12:45:57;94637.84;;;14.03;92.64
28626;BME280;18905;42.668;23.364;2023-04-20T12:50:59;94567.00;;;13.77;91.32
28626;BME280;18905;42.668;23.364;2023-04-20T12:56:01;94640.75;;;14.41;91.47
28626;BME280;18905;42.668;23.364;2023-04-20T12:58:26;94669.78;;;14.87;89.81
28626;BME280;18905;42.668;23.364;2023-04-20T13:11:13;94584.78;;;13.90;90.00
28626;BME280;18905;42.668;23.364;2023-04-20T13:34:22;94608.84;;;13.06;100.00
28626;BME280;18905;42.668;23.364;2023-04-20T13:36:49;94590.03;;;12.97;100.00
28626;BME280;18905;42.668;23.364;2023-04-20T13:39:15;94570.31;;;12.61;100.00
28626;BME280;18905;42.668;23.364;2023-04-20T13:41:47;94535.75;;;12.42;100.00
28626;BME280;18905;42.668;23.364;2023-04-20T14:10:05;94575.44;;;13.29;100.00
28626;BME280;18905;42.668;23.364;2023-04-20T14:12:31;94584.31;;;13.57;100.00
28626;BME280;18905;42.668;23.364;2023-04-20T14:14:58;94532.22;;;13.36;100.00
28626;BME280;18905;42.668;23.364;2023-04-20T14:17:25;94591.69;;;13.72;100.00
28626;BME280;18905;42.668;23.364;2023-04-20T14:19:50;94552.16;;;13.28;100.00
28626;BME280;18905;42.668;23.364;2023-04-20T14:22:16;94632.16;;;13.93;100.00
28626;BME280;18905;42.668;23.364;2023-04-20T14:24:42;94651.44;;;14.19;100.00
28626;BME280;18905;42.668;23.364;2023-04-20T14:27:10;94579.50;;;13.97;100.00
28626;BME280;18905;42.668;23.364;2023-04-20T14:29:35;94561.91;;;14.07;100.00
28626;BME280;18905;42.668;23.364;2023-04-20T14:32:01;94555.00;;;14.09;100.00
28626;BME280;18905;42.668;23.364;2023-04-20T14:34:27;94527.94;;;14.13;99.25
28626;BME280;18905;42.668;23.364;2023-04-20T14:36:52;94576.78;;;14.44;97.97
28626;BME280;18905;42.668;23.364;2023-04-20T14:39:18;94525.84;;;14.22;95.29
28626;BME280;18905;42.668;23.364;2023-04-20T14:41:45;94651.00;;;14.63;98.59
28626;BME280;18905;42.668;23.364;2023-04-20T14:44:10;94696.00;;;14.95;99.78
28626;BME280;18905;42.668;23.364;2023-04-20T14:46:38;94605.09;;;14.27;99.81
28626;BME280;18905;42.668;23.364;2023-04-20T14:49:03;94543.81;;;13.80;100.00
28626;BME280;18905;42.668;23.364;2023-04-20T14:51:29;94569.34;;;13.63;100.00
28626;BME280;18905;42.668;23.364;2023-04-20T14:53:55;94570.06;;;13.91;96.84
28626;BME280;18905;42.668;23.364;2023-04-20T14:56:21;94691.59;;;14.41;97.89
28626;BME280;18905;42.668;23.364;2023-04-20T14:58:46;94530.06;;;13.42;98.14
28626;BME280;18905;42.668;23.364;2023-04-20T15:01:12;94692.03;;;14.15;93.69
28626;BME280;18905;42.668;23.364;2023-04-20T15:03:39;94540.59;;;12.76;96.45
28626;BME280;18905;42.668;23.364;2023-04-20T15:06:05;94644.94;;;13.49;98.27
28626;BME280;18905;42.668;23.364;2023-04-20T15:08:30;94563.75;;;13.13;99.56
28626;BME280;18905;42.668;23.364;2023-04-20T15:10:57;94693.75;;;13.92;99.01
28626;BME280;18905;42.668;23.364;2023-04-20T15:13:23;94601.94;;;13.36;97.38
28626;BME280;18905;42.668;23.364;2023-04-20T15:15:49;94696.56;;;13.80;99.96
28626;BME280;18905;42.668;23.364;2023-04-20T15:18:15;94545.38;;;13.07;98.93
28626;BME280;18905;42.668;23.364;2023-04-20T15:20:41;94582.97;;;13.36;99.01
28626;BME280;18905;42.668;23.364;2023-04-20T15:23:07;94524.28;;;13.00;99.93
28626;BME280;18905;42.668;23.364;2023-04-20T15:25:33;94694.38;;;14.29;99.08
28626;BME280;18905;42.668;23.364;2023-04-20T15:27:58;94590.38;;;13.66;97.70
28626;BME280;18905;42.668;23.364;2023-04-20T15:30:24;94573.25;;;13.35;100.00
28626;BME280;18905;42.668;23.364;2023-04-20T15:32:50;94697.09;;;14.29;100.00
28626;BME280;18905;42.668;23.364;2023-04-20T15:35:16;94608.09;;;13.48;100.00
28626;BME280;18905;42.668;23.364;2023-04-20T15:37:41;94556.34;;;13.26;100.00
28626;BME280;18905;42.668;23.364;2023-04-20T15:40:07;94567.38;;;13.33;100.00
28626;BME280;18905;42.668;23.364;2023-04-20T15:42:32;94559.63;;;13.47;100.00
28626;BME280;18905;42.668;23.364;2023-04-20T15:44:58;94587.13;;;13.61;100.00
28626;BME280;18905;42.668;23.364;2023-04-20T15:47:24;94602.72;;;13.64;100.00
28626;BME280;18905;42.668;23.364;2023-04-20T15:49:50;94690.44;;;14.26;100.00
28626;BME280;18905;42.668;23.364;2023-04-20T15:52:15;94535.69;;;13.21;100.00
28626;BME280;18905;42.668;23.364;2023-04-20T15:54:41;94585.94;;;13.46;100.00
28626;BME280;18905;42.668;23.364;2023-04-20T15:57:11;94592.34;;;13.54;100.00
28626;BME280;18905;42.668;23.364;2023-04-20T15:59:36;94682.16;;;14.07;100.00
28626;BME280;18905;42.668;23.364;2023-04-20T16:02:02;94534.53;;;13.07;100.00
28626;BME280;18905;42.668;23.364;2023-04-20T16:04:28;94682.47;;;13.90;100.00
28626;BME280;18905;42.668;23.364;2023-04-20T16:06:53;94536.25;;;12.99;100.00
28626;BME280;18905;42.668;23.364;2023-04-20T16:09:19;94576.41;;;13.09;100.00
28626;BME280;18905;42.668;23.364;2023-04-20T16:11:45;94628.75;;;13.53;100.00
28626;BME280;18905;42.668;23.364;2023-04-20T16:14:11;94601.31;;;13.70;100.00
28626;BME280;18905;42.668;23.364;2023-04-20T16:16:36;94567.41;;;13.48;100.00
28626;BME280;18905;42.668;23.364;2023-04-20T16:19:02;94533.97;;;13.29;100.00
28626;BME280;18905;42.668;23.364;2023-04-20T16:21:27;94677.44;;;14.20;100.00
28626;BME280;18905;42.668;23.364;2023-04-20T16:23:55;94591.13;;;13.67;100.00
28626;BME280;18905;42.668;23.364;2023-04-20T16:26:24;94542.78;;;13.26;100.00
28626;BME280;18905;42.668;23.364;2023-04-20T16:28:50;94683.72;;;13.93;100.00
28626;BME280;18905;42.668;23.364;2023-04-20T16:31:16;94534.09;;;12.65;100.00
28626;BME280;18905;42.668;23.364;2023-04-20T16:33:42;94537.75;;;12.85;100.00
28626;BME280;18905;42.668;23.364;2023-04-20T16:38:38;94679.97;;;14.13;100.00
28626;BME280;18905;42.668;23.364;2023-04-20T16:41:03;94604.72;;;13.82;100.00
28626;BME280;18905;42.668;23.364;2023-04-20T16:43:29;94560.28;;;13.28;100.00
28626;BME280;18905;42.668;23.364;2023-04-20T16:45:54;94563.50;;;13.18;100.00
28626;BME280;18905;42.668;23.364;2023-04-20T16:48:20;94522.03;;;13.02;100.00
28626;BME280;18905;42.668;23.364;2023-04-20T16:50:45;94572.94;;;13.52;100.00
28626;BME280;18905;42.668;23.364;2023-04-20T16:53:11;94671.28;;;13.92;100.00
28626;BME280;18905;42.668;23.364;2023-04-20T16:55:36;94621.72;;;13.79;100.00
28626;BME280;18905;42.668;23.364;2023-04-20T16:58:02;94603.06;;;13.78;100.00
28626;BME280;18905;42.668;23.364;2023-04-20T17:00:28;94524.19;;;13.24;100.00
28626;BME280;18905;42.668;23.364;2023-04-20T17:02:54;94556.88;;;13.31;100.00
28626;BME280;18905;42.668;23.364;2023-04-20T17:05:20;94647.84;;;13.72;100.00
28626;BME280;18905;42.668;23.364;2023-04-20T17:07:45;94674.84;;;13.80;100.00
28626;BME280;18905;42.668;23.364;2023-04-20T17:10:11;94590.09;;;13.28;100.00
28626;BME280;18905;42.668;23.364;2023-04-20T17:12:36;94667.31;;;13.74;100.00
28626;BME280;18905;42.668;23.364;2023-04-20T17:15:02;94676.38;;;13.66;100.00
28626;BME280;18905;42.668;23.364;2023-04-20T17:17:28;94685.44;;;13.85;100.00
28626;BME280;18905;42.668;23.364;2023-04-20T17:19:53;94677.84;;;13.91;100.00
28626;BME280;18905;42.668;23.364;2023-04-20T17:22:19;94673.19;;;13.91;100.00
28626;BME280;18905;42.668;23.364;2023-04-20T17:24:44;94655.34;;;13.47;100.00
28626;BME280;18905;42.668;23.364;2023-04-20T17:27:10;94655.31;;;13.75;100.00
28626;BME280;18905;42.668;23.364;2023-04-20T17:29:36;94677.94;;;13.94;100.00
28626;BME280;18905;42.668;23.364;2023-04-20T17:32:05;94653.44;;;13.63;100.00
28626;BME280;18905;42.668;23.364;2023-04-20T17:34:31;94678.69;;;13.79;100.00
28626;BME280;18905;42.668;23.364;2023-04-20T17:36:57;94676.50;;;13.85;100.00
28626;BME280;18905;42.668;23.364;2023-04-20T17:39:22;94672.38;;;13.75;100.00
28626;BME280;18905;42.668;23.364;2023-04-20T17:41:48;94659.31;;;13.65;100.00
28626;BME280;18905;42.668;23.364;2023-04-20T17:44:13;94660.78;;;13.63;100.00
28626;BME280;18905;42.668;23.364;2023-04-20T17:46:39;94679.56;;;13.83;100.00
28626;BME280;18905;42.668;23.364;2023-04-20T17:49:04;94683.63;;;13.89;100.00
28626;BME280;18905;42.668;23.364;2023-04-20T17:51:30;94684.06;;;13.91;100.00
28626;BME280;18905;42.668;23.364;2023-04-20T17:53:55;94690.03;;;13.97;100.00
28626;BME280;18905;42.668;23.364;2023-04-20T17:56:20;94694.75;;;14.00;100.00
28626;BME280;18905;42.668;23.364;2023-04-20T17:58:46;94689.84;;;14.05;100.00
28626;BME280;18905;42.668;23.364;2023-04-20T18:01:12;94692.22;;;14.07;100.00
28626;BME280;18905;42.668;23.364;2023-04-20T18:03:38;94693.19;;;14.14;99.18
28626;BME280;18905;42.668;23.364;2023-04-20T18:06:03;94694.06;;;14.18;99.05
28626;BME280;18905;42.668;23.364;2023-04-20T18:08:29;94698.03;;;14.21;97.58
28626;BME280;18905;42.668;23.364;2023-04-20T18:10:54;94695.06;;;14.26;97.48
28626;BME280;18905;42.668;23.364;2023-04-20T18:13:20;94697.09;;;14.29;98.49
28626;BME280;18905;42.668;23.364;2023-04-20T18:15:45;94696.84;;;14.34;97.85
28626;BME280;18905;42.668;23.364;2023-04-20T18:18:11;94693.59;;;14.28;98.14
28626;BME280;18905;42.668;23.364;2023-04-20T18:20:36;94660.72;;;14.02;98.29
28626;BME280;18905;42.668;23.364;2023-04-20T18:23:02;94699.00;;;14.28;98.27
28626;BME280;18905;42.668;23.364;2023-04-20T18:25:27;94708.31;;;14.27;99.01
28626;BME280;18905;42.668;23.364;2023-04-20T18:27:52;94692.81;;;14.28;100.00
28626;BME280;18905;42.668;23.364;2023-04-20T18:30:18;94684.63;;;14.12;100.00
28626;BME280;18905;42.668;23.364;2023-04-20T18:32:43;94692.50;;;14.17;100.00
28626;BME280;18905;42.668;23.364;2023-04-20T18:35:09;94710.59;;;14.25;97.27
28626;BME280;18905;42.668;23.364;2023-04-20T18:37:35;94705.84;;;14.22;96.94
28626;BME280;18905;42.668;23.364;2023-04-20T18:40:01;94706.00;;;14.29;96.65
28626;BME280;18905;42.668;23.364;2023-04-20T18:42:28;94711.22;;;14.34;100.00
28626;BME280;18905;42.668;23.364;2023-04-20T18:44:53;94712.50;;;14.25;97.37
28626;BME280;18905;42.668;23.364;2023-04-20T18:47:20;94695.28;;;14.05;98.89
28626;BME280;18905;42.668;23.364;2023-04-20T18:49:48;94699.44;;;13.87;100.00
28626;BME280;18905;42.668;23.364;2023-04-20T18:52:14;94692.06;;;13.72;100.00
28626;BME280;18905;42.668;23.364;2023-04-20T18:54:39;94717.03;;;13.78;100.00
28626;BME280;18905;42.668;23.364;2023-04-20T18:57:05;94675.19;;;13.51;100.00
28626;BME280;18905;42.668;23.364;2023-04-20T18:59:31;94572.13;;;12.69;100.00
28626;BME280;18905;42.668;23.364;2023-04-20T19:01:57;94573.13;;;12.64;100.00
28626;BME280;18905;42.668;23.364;2023-04-20T19:04:23;94619.84;;;12.97;100.00
28626;BME280;18905;42.668;23.364;2023-04-20T19:06:48;94731.53;;;13.70;100.00
28626;BME280;18905;42.668;23.364;2023-04-20T19:09:14;94570.38;;;12.49;100.00
28626;BME280;18905;42.668;23.364;2023-04-20T19:11:41;94617.69;;;12.67;100.00
28626;BME280;18905;42.668;23.364;2023-04-20T19:14:07;94586.81;;;12.44;100.00
28626;BME280;18905;42.668;23.364;2023-04-20T19:16:33;94636.56;;;12.75;100.00
28626;BME280;18905;42.668;23.364;2023-04-20T19:18:59;94729.03;;;13.37;100.00
28626;BME280;18905;42.668;23.364;2023-04-20T19:21:25;94612.75;;;12.57;100.00
28626;BME280;18905;42.668;23.364;2023-04-20T19:23:51;94664.19;;;13.05;100.00
28626;BME280;18905;42.668;23.364;2023-04-20T19:26:17;94679.63;;;13.16;100.00
28626;BME280;18905;42.668;23.364;2023-04-20T19:28:43;94614.31;;;12.82;100.00
28626;BME280;18905;42.668;23.364;2023-04-20T19:31:10;94597.06;;;12.74;100.00
28626;BME280;18905;42.668;23.364;2023-04-20T19:33:36;94579.91;;;12.70;100.00
28626;BME280;18905;42.668;23.364;2023-04-20T19:36:02;94679.44;;;13.37;100.00
28626;BME280;18905;42.668;23.364;2023-04-20T19:38:31;94744.06;;;13.74;100.00
28626;BME280;18905;42.668;23.364;2023-04-20T19:41:02;94576.97;;;12.75;100.00
28626;BME280;18905;42.668;23.364;2023-04-20T19:43:28;94738.16;;;13.84;100.00
28626;BME280;18905;42.668;23.364;2023-04-20T19:45:56;94645.38;;;13.24;100.00
28626;BME280;18905;42.668;23.364;2023-04-20T19:48:22;94596.50;;;12.69;100.00
28626;BME280;18905;42.668;23.364;2023-04-20T19:50:49;94588.50;;;12.60;100.00
28626;BME280;18905;42.668;23.364;2023-04-20T19:53:15;94708.22;;;13.41;100.00
28626;BME280;18905;42.668;23.364;2023-04-20T19:55:40;94578.59;;;12.52;100.00
28626;BME280;18905;42.668;23.364;2023-04-20T19:58:06;94603.41;;;12.54;100.00
28626;BME280;18905;42.668;23.364;2023-04-20T20:00:36;94579.31;;;12.25;100.00
28626;BME280;18905;42.668;23.364;2023-04-20T20:03:02;94735.06;;;13.19;100.00
28626;BME280;18905;42.668;23.364;2023-04-20T20:05:28;94534.22;;;11.69;100.00
28626;BME280;18905;42.668;23.364;2023-04-20T20:07:53;94738.13;;;12.81;100.00
28626;BME280;18905;42.668;23.364;2023-04-20T20:10:20;94747.25;;;12.53;100.00
28626;BME280;18905;42.668;23.364;2023-04-20T20:12:46;94589.72;;;11.22;100.00
28626;BME280;18905;42.668;23.364;2023-04-20T20:15:11;94616.72;;;12.23;100.00
28626;BME280;18905;42.668;23.364;2023-04-20T20:17:37;94718.03;;;14.28;100.00
28626;BME280;18905;42.668;23.364;2023-04-20T20:20:03;94743.03;;;15.65;100.00
28626;BME280;18905;42.668;23.364;2023-04-20T20:22:32;94746.78;;;16.36;100.00
28626;BME280;18905;42.668;23.364;2023-04-20T20:24:58;94747.59;;;16.82;100.00
28626;BME280;18905;42.668;23.364;2023-04-20T20:27:25;94749.16;;;17.05;100.00
28626;BME280;18905;42.668;23.364;2023-04-20T20:29:51;94739.59;;;17.70;100.00
28626;BME280;18905;42.668;23.364;2023-04-20T20:32:16;94743.69;;;18.16;100.00
28626;BME280;18905;42.668;23.364;2023-04-20T20:34:42;94742.00;;;18.74;100.00
28626;BME280;18905;42.668;23.364;2023-04-20T20:37:07;94738.22;;;18.93;100.00
28626;BME280;18905;42.668;23.364;2023-04-20T20:39:34;94745.88;;;19.17;95.09
28626;BME280;18905;42.668;23.364;2023-04-20T20:42:00;94741.59;;;19.19;89.43
28626;BME280;18905;42.668;23.364;2023-04-20T20:44:26;94629.38;;;17.85;83.90
28626;BME280;18905;42.668;23.364;2023-04-20T20:46:53;94624.63;;;17.16;87.34
28626;BME280;18905;42.668;23.364;2023-04-20T20:49:19;94705.28;;;17.17;88.59
28626;BME280;18905;42.668;23.364;2023-04-20T20:51:45;94669.16;;;16.27;90.63
28626;BME280;18905;42.668;23.364;2023-04-20T20:54:11;94708.41;;;15.46;95.04
28626;BME280;18905;42.668;23.364;2023-04-20T20:56:36;94604.41;;;14.30;94.56
28626;BME280;18905;42.668;23.364;2023-04-20T20:59:02;94614.38;;;13.95;96.90
28626;BME280;18905;42.668;23.364;2023-04-20T21:01:31;94658.06;;;13.90;98.84
28626;BME280;18905;42.668;23.364;2023-04-20T21:04:05;94575.84;;;12.64;100.00
28626;BME280;18905;42.668;23.364;2023-04-20T21:07:17;94668.91;;;13.47;100.00
28626;BME280;18905;42.668;23.364;2023-04-20T21:10:05;94633.66;;;13.08;100.00
28626;BME280;18905;42.668;23.364;2023-04-20T21:12:37;94588.69;;;12.79;100.00
28626;BME280;18905;42.668;23.364;2023-04-20T21:15:26;94582.63;;;12.46;100.00
28626;BME280;18905;42.668;23.364;2023-04-20T21:18:55;94740.44;;;13.43;100.00